createdAt,value
2018-03-25T00:00:32.392Z,27.10
2018-03-25T00:03:03.243Z,30.90
2018-03-25T00:05:32.506Z,32.47
2018-03-25T00:08:02.560Z,33.23
2018-03-25T00:10:31.801Z,29.97
2018-03-25T00:13:01.043Z,31.07
2018-03-25T00:15:31.048Z,30.93
2018-03-25T00:18:00.313Z,29.67
2018-03-25T00:20:29.582Z,29.60
2018-03-25T00:22:58.835Z,32.27
2018-03-25T00:25:28.790Z,30.20
2018-03-25T00:27:58.110Z,32.00
2018-03-25T00:30:27.520Z,30.03
2018-03-25T00:32:56.777Z,29.33
2018-03-25T00:35:26.752Z,29.20
2018-03-25T00:37:56.083Z,27.87
2018-03-25T00:40:25.253Z,30.97
2018-03-25T00:42:54.504Z,32.37
2018-03-25T00:45:23.819Z,34.37
2018-03-25T00:47:53.126Z,32.53
2018-03-25T00:50:22.324Z,34.60
2018-03-25T00:52:51.636Z,31.47
2018-03-25T00:55:21.601Z,33.03
2018-03-25T00:57:55.606Z,31.40
2018-03-25T01:00:24.918Z,29.80
2018-03-25T01:02:54.233Z,32.40
2018-03-25T01:05:23.432Z,28.03
2018-03-25T01:07:52.650Z,28.50
2018-03-25T01:10:21.927Z,34.90
2018-03-25T01:12:51.235Z,27.97
2018-03-25T01:15:21.201Z,28.13
2018-03-25T01:17:50.429Z,31.07
2018-03-25T01:20:19.725Z,29.57
2018-03-25T01:22:48.965Z,28.23
2018-03-25T01:25:18.139Z,30.57
2018-03-25T01:27:47.346Z,30.67
2018-03-25T01:30:16.566Z,29.47
2018-03-25T01:32:45.882Z,30.70
2018-03-25T01:35:15.197Z,34.83
2018-03-25T01:37:44.611Z,29.67
2018-03-25T01:40:14.025Z,31.37
2018-03-25T01:42:43.240Z,32.40
2018-03-25T01:45:12.515Z,30.80
2018-03-25T01:47:41.870Z,31.23
2018-03-25T01:50:11.175Z,32.10
2018-03-25T01:52:40.492Z,28.07
2018-03-25T01:55:09.906Z,29.97
2018-03-25T01:57:39.216Z,31.57
2018-03-25T02:00:10.376Z,28.73
2018-03-25T02:02:39.648Z,32.80
2018-03-25T02:05:08.990Z,29.10
2018-03-25T02:07:38.193Z,34.80
2018-03-25T02:10:07.403Z,30.93
2018-03-25T02:12:36.615Z,28.80
2018-03-25T02:15:05.832Z,32.17
2018-03-25T02:17:35.158Z,29.83
2018-03-25T02:20:04.355Z,35.40
2018-03-25T02:22:33.784Z,31.13
2018-03-25T02:25:03.033Z,32.47
2018-03-25T02:27:33.042Z,29.90
2018-03-25T02:30:02.347Z,30.10
2018-03-25T02:32:31.622Z,30.33
2018-03-25T02:35:01.069Z,31.47
2018-03-25T02:37:30.953Z,30.53
2018-03-25T02:40:00.930Z,30.17
2018-03-25T02:42:30.207Z,29.33
2018-03-25T02:44:59.411Z,31.57
2018-03-25T02:47:28.781Z,31.17
2018-03-25T02:49:58.062Z,30.20
2018-03-25T02:52:27.401Z,28.50
2018-03-25T02:54:56.653Z,31.00
2018-03-25T02:57:25.938Z,29.97
2018-03-25T02:59:55.926Z,26.40
2018-03-25T03:02:25.192Z,31.73
2018-03-25T03:04:54.456Z,29.80
2018-03-25T03:07:23.696Z,30.03
2018-03-25T03:09:52.949Z,29.10
2018-03-25T03:12:22.199Z,30.53
2018-03-25T03:14:51.442Z,35.27
2018-03-25T03:17:21.463Z,31.00
2018-03-25T03:19:50.694Z,34.27
2018-03-25T03:22:19.994Z,31.33
2018-03-25T03:24:49.378Z,36.20
2018-03-25T03:27:18.648Z,36.67
2018-03-25T03:29:47.863Z,34.17
2018-03-25T03:32:17.726Z,32.27
2018-03-25T03:34:46.969Z,28.37
2018-03-25T03:37:17.023Z,31.80
2018-03-25T03:39:46.302Z,31.80
2018-03-25T03:42:16.315Z,34.10
2018-03-25T03:44:45.497Z,30.30
2018-03-25T03:47:14.936Z,30.87
2018-03-25T03:49:44.248Z,35.43
2018-03-25T03:52:13.476Z,33.57
2018-03-25T03:54:48.919Z,32.10
2018-03-25T03:57:18.184Z,34.60
2018-03-25T03:59:48.179Z,33.73
2018-03-25T04:02:17.408Z,34.50
2018-03-25T04:04:47.430Z,30.00
2018-03-25T04:07:16.664Z,33.00
2018-03-25T04:09:46.666Z,29.23
2018-03-25T04:12:15.962Z,31.47
2018-03-25T04:14:45.241Z,34.63
2018-03-25T04:17:14.480Z,36.27
2018-03-25T04:19:44.162Z,31.87
2018-03-25T04:22:13.513Z,33.83
2018-03-25T04:24:42.784Z,36.60
2018-03-25T04:27:12.138Z,33.13
2018-03-25T04:29:41.374Z,36.73
2018-03-25T04:32:10.665Z,34.30
2018-03-25T04:34:39.883Z,34.63
2018-03-25T04:37:09.121Z,35.60
2018-03-25T04:39:39.189Z,38.43
2018-03-25T04:42:08.492Z,35.60
2018-03-25T04:44:38.507Z,35.97
2018-03-25T04:47:08.495Z,32.93
2018-03-25T04:49:37.803Z,32.27
2018-03-25T04:52:06.981Z,34.53
2018-03-25T04:54:36.254Z,28.63
2018-03-25T04:57:05.526Z,36.33
2018-03-25T04:59:34.777Z,37.10
2018-03-25T05:02:03.998Z,33.57
2018-03-25T05:04:33.272Z,32.60
2018-03-25T05:07:02.486Z,33.27
2018-03-25T05:09:31.778Z,31.17
2018-03-25T05:12:00.994Z,29.23
2018-03-25T05:14:30.232Z,35.43
2018-03-25T05:16:59.462Z,29.87
2018-03-25T05:19:28.944Z,30.23
2018-03-25T05:21:58.173Z,27.17
2018-03-25T05:24:27.473Z,27.83
2018-03-25T05:27:00.855Z,28.57
2018-03-25T05:29:30.112Z,29.60
2018-03-25T05:31:59.392Z,32.73
2018-03-25T05:34:45.585Z,29.57
2018-03-25T05:37:14.810Z,32.40
2018-03-25T05:39:44.055Z,30.27
2018-03-25T05:42:13.271Z,29.37
2018-03-25T05:44:46.343Z,26.53
2018-03-25T05:47:15.589Z,27.73
2018-03-25T05:49:45.622Z,25.07
2018-03-25T05:52:14.881Z,25.07
2018-03-25T05:55:03.609Z,24.57
2018-03-25T05:57:32.861Z,25.37
2018-03-25T06:00:02.116Z,26.13
2018-03-25T06:02:31.396Z,28.87
2018-03-25T06:05:08.982Z,25.10
2018-03-25T06:07:48.250Z,29.47
2018-03-25T06:10:17.574Z,25.70
2018-03-25T06:12:48.603Z,28.93
2018-03-25T06:15:18.229Z,28.97
2018-03-25T06:17:47.470Z,27.00
2018-03-25T06:20:16.754Z,26.70
2018-03-25T06:22:53.786Z,24.47
2018-03-25T06:25:25.641Z,26.60
2018-03-25T06:27:57.747Z,30.87
2018-03-25T06:30:28.277Z,35.23
2018-03-25T06:32:58.197Z,31.67
2018-03-25T06:35:27.408Z,33.00
2018-03-25T06:37:56.789Z,29.43
2018-03-25T06:40:26.036Z,29.93
2018-03-25T06:42:55.384Z,30.40
2018-03-25T06:45:24.696Z,28.20
2018-03-25T06:47:53.927Z,27.67
2018-03-25T06:50:24.195Z,32.23
2018-03-25T06:52:53.510Z,33.53
2018-03-25T06:55:27.933Z,29.47
2018-03-25T06:57:57.201Z,33.30
2018-03-25T07:00:27.227Z,30.10
2018-03-25T07:02:56.418Z,28.23
2018-03-25T07:05:27.113Z,28.97
2018-03-25T07:07:56.336Z,29.40
2018-03-25T07:10:44.685Z,35.33
2018-03-25T07:13:17.086Z,31.97
2018-03-25T07:15:46.301Z,35.70
2018-03-25T07:18:15.567Z,33.67
2018-03-25T07:20:44.794Z,35.10
2018-03-25T07:23:14.873Z,35.53
2018-03-25T07:25:55.532Z,29.17
2018-03-25T07:28:24.748Z,34.13
2018-03-25T07:30:55.028Z,30.47
2018-03-25T07:33:30.991Z,36.27
2018-03-25T07:36:00.238Z,31.97
2018-03-25T07:38:29.504Z,30.87
2018-03-25T07:40:58.744Z,32.27
2018-03-25T07:43:28.006Z,32.73
2018-03-25T07:45:57.949Z,31.03
2018-03-25T07:48:27.156Z,36.23
2018-03-25T07:50:56.425Z,32.47
2018-03-25T07:53:25.649Z,31.30
2018-03-25T07:55:54.879Z,33.90
2018-03-25T07:58:24.102Z,39.63
2018-03-25T08:00:53.314Z,30.83
2018-03-25T08:03:22.577Z,33.17
2018-03-25T08:05:51.807Z,31.23
2018-03-25T08:08:21.058Z,35.27
2018-03-25T08:10:50.327Z,31.73
2018-03-25T08:13:19.584Z,32.77
2018-03-25T08:15:48.819Z,34.07
2018-03-25T08:18:18.053Z,32.90
2018-03-25T08:20:47.358Z,27.63
2018-03-25T08:23:16.640Z,30.93
2018-03-25T08:26:00.345Z,33.00
2018-03-25T08:28:29.590Z,34.13
2018-03-25T08:30:58.806Z,35.43
2018-03-25T08:33:28.825Z,31.47
2018-03-25T08:35:58.076Z,28.47
2018-03-25T08:38:27.325Z,31.27
2018-03-25T08:41:01.434Z,32.10
2018-03-25T08:43:30.678Z,34.00
2018-03-25T08:45:59.953Z,35.40
2018-03-25T08:48:29.219Z,37.57
2018-03-25T08:50:58.504Z,30.30
2018-03-25T08:53:27.740Z,31.83
2018-03-25T08:55:56.931Z,33.90
2018-03-25T08:58:26.210Z,34.57
2018-03-25T09:01:16.891Z,32.90
2018-03-25T09:03:46.162Z,37.27
2018-03-25T09:06:15.384Z,33.27
2018-03-25T09:08:44.647Z,35.33
2018-03-25T09:11:14.579Z,34.83
2018-03-25T09:14:03.115Z,33.93
2018-03-25T09:16:32.353Z,34.77
2018-03-25T09:19:01.599Z,35.33
2018-03-25T09:21:36.774Z,38.13
2018-03-25T09:24:06.039Z,35.73
2018-03-25T09:26:36.230Z,33.27
2018-03-25T09:29:06.200Z,34.17
2018-03-25T09:31:35.425Z,33.27
2018-03-25T09:34:23.244Z,37.83
2018-03-25T09:36:52.604Z,34.33
2018-03-25T09:39:21.751Z,29.80
2018-03-25T09:41:57.025Z,33.00
2018-03-25T09:44:26.968Z,33.37
2018-03-25T09:46:56.221Z,31.73
2018-03-25T09:49:25.453Z,32.03
2018-03-25T09:51:55.494Z,33.57
2018-03-25T09:54:25.463Z,32.90
2018-03-25T09:56:54.672Z,32.73
2018-03-25T09:59:23.925Z,30.73
2018-03-25T10:01:59.503Z,32.00
2018-03-25T10:07:48.924Z,31.03
2018-03-25T10:10:18.298Z,31.70
2018-03-25T10:12:47.535Z,32.93
2018-03-25T10:15:16.783Z,34.67
2018-03-25T10:17:57.295Z,27.40
2018-03-25T10:20:26.478Z,28.07
2018-03-25T10:22:55.753Z,28.57
2018-03-25T10:25:25.856Z,29.50
2018-03-25T10:27:55.164Z,28.13
2018-03-25T10:33:18.635Z,27.03
2018-03-25T10:35:47.887Z,27.13
2018-03-25T10:38:17.112Z,27.67
2018-03-25T10:40:46.332Z,28.33
2018-03-25T10:43:15.558Z,27.03
2018-03-25T10:45:47.809Z,23.97
2018-03-25T10:48:17.016Z,26.67
2018-03-25T10:51:07.792Z,33.97
2018-03-25T10:53:37.054Z,25.33
2018-03-25T10:56:06.267Z,25.67
2018-03-25T10:58:35.466Z,24.87
2018-03-25T11:01:04.689Z,28.10
2018-03-25T11:03:34.707Z,25.33
2018-03-25T11:06:03.964Z,22.50
2018-03-25T11:08:33.201Z,24.40
2018-03-25T11:11:02.440Z,26.43
2018-03-25T11:13:31.695Z,27.00
2018-03-25T11:16:01.684Z,27.93
2018-03-25T11:18:31.096Z,28.23
2018-03-25T11:21:00.324Z,26.80
2018-03-25T11:23:29.565Z,27.63
2018-03-25T11:26:06.301Z,24.83
2018-03-25T11:28:35.622Z,27.40
2018-03-25T11:31:04.930Z,27.47
2018-03-25T11:33:34.445Z,26.67
2018-03-25T11:36:03.686Z,28.20
2018-03-25T11:38:33.710Z,25.90
2018-03-25T11:41:02.922Z,25.47
2018-03-25T11:43:32.143Z,28.50
2018-03-25T11:46:02.150Z,24.37
2018-03-25T11:48:31.361Z,24.10
2018-03-25T11:51:00.667Z,25.07
2018-03-25T11:53:29.839Z,27.57
2018-03-25T11:55:59.087Z,25.27
2018-03-25T11:58:28.278Z,24.83
2018-03-25T12:00:57.612Z,27.57
2018-03-25T12:03:26.866Z,24.17
2018-03-25T12:05:56.898Z,26.17
2018-03-25T12:08:26.857Z,25.63
2018-03-25T12:10:56.097Z,25.57
2018-03-25T12:13:25.356Z,26.37
2018-03-25T12:15:54.641Z,22.50
2018-03-25T12:18:24.040Z,27.20
2018-03-25T12:20:54.073Z,28.13
2018-03-25T12:23:23.336Z,24.13
2018-03-25T12:25:52.572Z,25.37
2018-03-25T12:28:21.999Z,24.97
2018-03-25T12:30:51.249Z,24.83
2018-03-25T12:33:20.529Z,27.43
2018-03-25T12:35:49.732Z,24.97
2018-03-25T12:38:19.044Z,27.27
2018-03-25T12:40:48.249Z,23.43
2018-03-25T12:43:17.570Z,25.03
2018-03-25T12:45:46.728Z,24.53
2018-03-25T12:48:15.959Z,25.33
2018-03-25T12:50:45.175Z,26.67
2018-03-25T12:53:14.387Z,27.83
2018-03-25T12:55:43.587Z,26.23
2018-03-25T12:58:14.807Z,26.37
2018-03-25T13:00:43.972Z,25.77
2018-03-25T13:03:13.197Z,27.50
2018-03-25T13:05:42.513Z,25.73
2018-03-25T13:08:11.686Z,26.60
2018-03-25T13:10:41.671Z,25.87
2018-03-25T13:13:11.662Z,23.73
2018-03-25T13:15:40.885Z,25.37
2018-03-25T13:18:10.209Z,26.13
2018-03-25T13:20:39.520Z,25.30
2018-03-25T13:23:08.835Z,26.90
2018-03-25T13:25:38.047Z,26.13
2018-03-25T13:28:08.785Z,23.83
2018-03-25T13:30:38.001Z,27.43
2018-03-25T13:33:07.203Z,22.83
2018-03-25T13:35:36.634Z,29.33
2018-03-25T13:38:05.884Z,26.67
2018-03-25T13:40:35.154Z,24.83
2018-03-25T13:43:04.438Z,24.63
2018-03-25T13:45:33.661Z,25.73
2018-03-25T13:48:02.818Z,27.33
2018-03-25T13:50:32.838Z,25.30
2018-03-25T13:53:02.126Z,24.93
2018-03-25T13:55:31.343Z,25.80
2018-03-25T13:58:00.516Z,24.53
2018-03-25T14:00:29.863Z,22.57
2018-03-25T14:02:59.057Z,22.27
2018-03-25T14:05:28.491Z,23.87
2018-03-25T14:07:57.743Z,23.07
2018-03-25T14:10:27.673Z,23.57
2018-03-25T14:12:56.995Z,25.20
2018-03-25T14:15:26.158Z,25.10
2018-03-25T14:17:55.321Z,22.97
2018-03-25T14:20:25.288Z,25.03
2018-03-25T14:22:54.510Z,23.40
2018-03-25T14:25:23.806Z,23.23
2018-03-25T14:27:53.069Z,23.73
2018-03-25T14:30:23.111Z,24.23
2018-03-25T14:32:53.077Z,22.40
2018-03-25T14:35:22.298Z,21.97
2018-03-25T14:37:51.513Z,27.50
2018-03-25T14:40:20.751Z,27.23
2018-03-25T14:42:49.962Z,26.40
2018-03-25T14:45:19.210Z,25.90
2018-03-25T14:47:48.453Z,25.63
2018-03-25T14:50:17.655Z,26.67
2018-03-25T14:52:46.849Z,25.90
2018-03-25T14:58:24.312Z,24.47
2018-03-25T15:00:53.524Z,28.77
2018-03-25T15:03:22.744Z,26.43
2018-03-25T15:05:52.046Z,26.77
2018-03-25T15:08:21.431Z,24.40
2018-03-25T15:10:50.637Z,23.93
2018-03-25T15:13:19.848Z,26.60
2018-03-25T15:15:49.015Z,25.97
2018-03-25T15:18:18.284Z,27.03
2018-03-25T15:20:47.519Z,28.30
2018-03-25T15:23:23.228Z,26.07
2018-03-25T15:25:52.465Z,26.97
2018-03-25T15:28:21.688Z,28.07
2018-03-25T15:30:51.037Z,24.37
2018-03-25T15:36:38.796Z,25.90
2018-03-25T15:42:08.475Z,22.10
2018-03-25T15:44:53.068Z,26.00
2018-03-25T15:47:23.158Z,28.47
2018-03-25T15:49:52.425Z,23.73
2018-03-25T15:52:22.504Z,24.10
2018-03-25T15:54:51.713Z,23.23
2018-03-25T15:57:20.913Z,25.27
2018-03-25T15:59:52.468Z,23.87
2018-03-25T16:02:21.721Z,23.27
2018-03-25T16:04:50.920Z,24.53
2018-03-25T16:07:20.200Z,25.10
2018-03-25T16:09:49.566Z,23.87
2018-03-25T16:12:23.770Z,27.77
2018-03-25T16:14:52.978Z,26.40
2018-03-25T16:20:16.735Z,25.80
2018-03-25T16:22:46.721Z,26.17
2018-03-25T16:25:15.891Z,27.83
2018-03-25T16:27:45.055Z,27.47
2018-03-25T16:30:14.263Z,27.03
2018-03-25T16:33:02.113Z,24.67
2018-03-25T16:35:31.402Z,25.60
2018-03-25T16:38:09.077Z,24.70
2018-03-25T16:40:38.344Z,28.00
2018-03-25T16:43:24.245Z,25.27
2018-03-25T16:46:12.704Z,26.43
2018-03-25T16:48:42.026Z,24.53
2018-03-25T16:51:11.223Z,23.53
2018-03-25T16:53:55.684Z,24.40
2018-03-25T16:56:24.952Z,24.87
2018-03-25T16:58:54.255Z,23.03
2018-03-25T17:01:24.930Z,24.30
2018-03-25T17:03:55.093Z,25.13
2018-03-25T17:09:44.624Z,26.13
2018-03-25T17:12:13.848Z,24.30
2018-03-25T17:14:43.883Z,26.87
2018-03-25T17:17:13.090Z,25.43
2018-03-25T17:19:45.791Z,23.97
2018-03-25T17:22:16.107Z,29.53
2018-03-25T17:24:46.154Z,25.33
2018-03-25T17:27:15.392Z,24.47
2018-03-25T17:29:44.681Z,25.40
2018-03-25T17:32:14.828Z,23.40
2018-03-25T17:34:44.063Z,24.63
2018-03-25T17:37:14.133Z,28.87
2018-03-25T17:39:43.346Z,28.10
2018-03-25T17:42:12.660Z,26.63
2018-03-25T17:44:42.010Z,21.77
2018-03-25T17:47:12.086Z,24.17
2018-03-25T17:49:41.577Z,23.33
2018-03-25T17:52:10.848Z,23.43
2018-03-25T17:54:40.093Z,20.70
2018-03-25T17:57:10.288Z,21.77
2018-03-25T17:59:53.753Z,21.80
2018-03-25T18:02:23.051Z,21.87
2018-03-25T18:04:56.960Z,18.70
2018-03-25T18:07:26.167Z,21.63
2018-03-25T18:09:55.340Z,17.10
2018-03-25T18:12:24.604Z,17.57
2018-03-25T18:14:53.855Z,22.17
2018-03-25T18:17:34.098Z,24.07
2018-03-25T18:19:57.958Z,19.40
2018-03-25T18:22:27.148Z,17.43
2018-03-25T18:24:56.639Z,20.23
2018-03-25T18:27:25.972Z,21.43
2018-03-25T18:29:56.251Z,20.13
2018-03-25T18:32:25.480Z,21.00
2018-03-25T18:34:55.520Z,22.93
2018-03-25T18:37:25.480Z,21.07
2018-03-25T18:39:54.752Z,21.27
2018-03-25T18:42:24.018Z,21.47
2018-03-25T18:44:53.322Z,21.43
2018-03-25T18:47:22.578Z,21.73
2018-03-25T18:49:51.826Z,21.10
2018-03-25T18:52:21.016Z,19.20
2018-03-25T18:54:51.007Z,20.10
2018-03-25T18:57:21.063Z,20.20
2018-03-25T18:59:51.032Z,19.90
2018-03-25T19:02:20.387Z,21.70
2018-03-25T19:04:49.609Z,19.23
2018-03-25T19:07:18.927Z,21.03
2018-03-25T19:09:48.940Z,21.73
2018-03-25T19:12:18.190Z,17.07
2018-03-25T19:14:47.481Z,18.70
2018-03-25T19:17:16.687Z,18.20
2018-03-25T19:19:45.914Z,20.17
2018-03-25T19:22:16.010Z,17.40
2018-03-25T19:24:48.910Z,19.30
2018-03-25T19:27:18.169Z,21.03
2018-03-25T19:29:47.524Z,16.90
2018-03-25T19:32:17.215Z,19.23
2018-03-25T19:34:47.518Z,17.60
2018-03-25T19:37:36.208Z,16.60
2018-03-25T19:40:06.900Z,20.00
2018-03-25T19:42:36.123Z,18.30
2018-03-25T19:45:05.431Z,16.77
2018-03-25T19:47:39.773Z,20.03
2018-03-25T19:50:08.978Z,17.77
2018-03-25T19:52:38.182Z,18.20
2018-03-25T19:55:07.413Z,17.50
2018-03-25T19:57:36.704Z,20.20
2018-03-25T20:00:05.989Z,23.63
2018-03-25T20:02:35.173Z,21.27
2018-03-25T20:05:10.971Z,22.80
2018-03-25T20:07:40.212Z,25.00
2018-03-25T20:10:09.457Z,23.97
2018-03-25T20:12:38.660Z,27.60
2018-03-25T20:15:07.880Z,24.03
2018-03-25T20:17:37.899Z,23.33
2018-03-25T20:20:07.166Z,22.03
2018-03-25T20:22:36.428Z,24.20
2018-03-25T20:25:19.902Z,21.73
2018-03-25T20:27:49.189Z,23.30
2018-03-25T20:30:18.405Z,23.87
2018-03-25T20:32:48.430Z,21.17
2018-03-25T20:35:17.691Z,26.23
2018-03-25T20:37:46.934Z,23.73
2018-03-25T20:40:16.168Z,22.53
2018-03-25T20:42:45.541Z,24.97
2018-03-25T20:45:24.245Z,27.87
2018-03-25T20:47:53.450Z,25.77
2018-03-25T20:50:23.423Z,25.57
2018-03-25T20:52:52.727Z,25.00
2018-03-25T20:55:21.950Z,21.70
2018-03-25T20:57:51.176Z,25.27
2018-03-25T21:00:20.462Z,20.80
2018-03-25T21:02:49.757Z,23.70
2018-03-25T21:05:18.987Z,23.27
2018-03-25T21:10:55.940Z,25.80
2018-03-25T21:13:26.046Z,19.07
2018-03-25T21:15:55.360Z,21.50
2018-03-25T21:18:24.553Z,21.57
2018-03-25T21:20:53.889Z,23.53
2018-03-25T21:23:23.136Z,23.90
2018-03-25T21:25:52.408Z,23.43
2018-03-25T21:28:21.587Z,19.93
2018-03-25T21:30:50.828Z,21.90
2018-03-25T21:33:20.054Z,21.20
2018-03-25T21:35:49.248Z,19.07
2018-03-25T21:38:18.469Z,22.83
2018-03-25T21:40:47.781Z,24.60
2018-03-25T21:43:17.094Z,25.80
2018-03-25T21:45:46.308Z,22.30
2018-03-25T21:48:15.527Z,24.20
2018-03-25T21:50:44.716Z,20.20
2018-03-25T21:53:13.949Z,26.97
2018-03-25T21:55:43.173Z,26.90
2018-03-25T21:58:12.399Z,25.77
2018-03-25T22:00:41.666Z,24.93
2018-03-25T22:03:11.111Z,23.27
2018-03-25T22:05:40.352Z,23.03
2018-03-25T22:08:09.581Z,25.07
2018-03-25T22:10:38.825Z,24.03
2018-03-25T22:13:08.044Z,27.47
2018-03-25T22:15:38.061Z,27.57
2018-03-25T22:18:07.475Z,30.10
2018-03-25T22:20:36.722Z,25.40
2018-03-25T22:23:06.743Z,25.70
2018-03-25T22:25:36.021Z,24.03
2018-03-25T22:28:05.340Z,29.03
2018-03-25T22:30:34.556Z,24.77
2018-03-25T22:33:03.863Z,24.70
2018-03-25T22:35:33.126Z,26.40
2018-03-25T22:38:03.123Z,23.17
2018-03-25T22:40:32.327Z,23.17
2018-03-25T22:43:01.555Z,28.23
2018-03-25T22:45:31.573Z,24.60
2018-03-25T22:48:00.827Z,23.50
2018-03-25T22:50:30.060Z,23.87
2018-03-25T22:52:59.306Z,25.53
2018-03-25T22:55:28.524Z,25.33
2018-03-25T22:57:57.820Z,25.87
2018-03-25T23:00:27.234Z,29.80
2018-03-25T23:02:56.447Z,24.47
2018-03-25T23:05:25.715Z,28.50
2018-03-25T23:07:54.950Z,26.40
2018-03-25T23:10:24.277Z,25.47
2018-03-25T23:12:53.476Z,26.57
2018-03-25T23:15:22.686Z,25.53
2018-03-25T23:17:52.120Z,26.27
2018-03-25T23:20:21.531Z,26.37
2018-03-25T23:22:50.819Z,27.70
2018-03-25T23:25:20.054Z,25.37
2018-03-25T23:27:50.161Z,28.20
2018-03-25T23:30:19.367Z,24.70
2018-03-25T23:32:49.323Z,24.40
2018-03-25T23:35:18.582Z,25.57
2018-03-25T23:37:48.544Z,25.73
2018-03-25T23:40:17.787Z,23.43
2018-03-25T23:42:46.960Z,27.27
2018-03-25T23:45:16.241Z,26.97
2018-03-25T23:47:46.247Z,25.33
2018-03-25T23:50:15.503Z,24.73
2018-03-25T23:52:44.751Z,25.40
2018-03-25T23:55:13.956Z,23.97
2018-03-25T23:57:43.223Z,24.27
